Blowing Sand Mountains, Nevada Weather observations

Data are for observation ending at time listed.
 Day   Time    Ave.   Ave.  Ave.  Vector   Max.   Stn.    Total    Solar   Ave.  
  of    of     Air    Rel.  Wind   Wind    Wind   Baro.  Precip.   Rad.    Soil  
Year   Day     Temp.  Hum.  Speed  Dir.    Gust   Pres.                    Temp. 
2014   (PST)    F      %     mph   deg.    mph     mb.     in.     W/m2     F   
------------------------------------------------------------------------------
 259    0:00   69.2    30    1.0    68      2.9    880.9     0.00       0    999.0
 259    0:10   68.0    31    0.7   133      3.4    880.9     0.00       0    999.0
 259    0:20   67.0    31    1.8   131      2.6    880.9     0.00       0    999.0
 259    0:30   65.3    32    0.7   139      2.6    881.0     0.00       0    999.0
 259    0:40   64.7    34    1.6   138      2.4    881.0     0.00       0    999.0
 259    0:50   64.9    32    2.6   158      4.5    881.1     0.00       0    999.0
 259    1:00   63.5    32    2.5   130      4.4    881.1     0.00       0    999.0
 259    1:10   63.1    32    2.0   148      3.1    881.2     0.00       0    999.0
 259    1:20   63.2    33    1.1   131      3.2    881.2     0.00       0    999.0
 259    1:30   62.7    33    2.3   162      2.9    881.2     0.00       0    999.0
 259    1:40   62.2    34    2.3   128      3.0    881.0     0.00       0    999.0
 259    1:50   61.6    35    2.3   159      3.4    881.0     0.00       0    999.0
 259    2:00   61.8    36    2.1   126      3.4    881.0     0.00       0    999.0
 259    2:10   59.9    33    2.3   348      4.7    881.0     0.00       0    999.0
 259    2:20   59.0    35    1.3   275      2.0    881.1     0.00       0    999.0
 259    2:30   60.4    34    1.0    76      2.6    881.0     0.00       0    999.0
 259    2:40   59.5    33    0.9   108      3.1    880.9     0.00       0    999.0
 259    2:50   59.1    37    3.2   129      4.5    880.9     0.00       0    999.0
 259    3:00   58.5    36    1.6   309      4.5    880.9     0.00       0    999.0
 259    3:10   58.2    37    1.4   174      6.0    880.9     0.00       0    999.0
 259    3:20   57.6    37    1.1    45      2.9    880.9     0.00       0    999.0
 259    3:30   57.6    38    1.1    89      2.6    880.8     0.00       0    999.0
 259    3:40   58.3    39    2.1   143      4.2    880.8     0.00       0    999.0
 259    3:50   59.0    36    1.6    30      3.8    880.9     0.00       0    999.0
 259    4:00   57.7    37    2.6    63      3.7    880.9     0.00       0    999.0
 259    4:10   55.6    37    1.1   181      3.8    880.9     0.00       0    999.0
 259    4:20   56.5    41    4.2   122      5.6    880.9     0.00       0    999.0
 259    4:30   57.8    40    2.8   161      4.9    880.9     0.00       0    999.0
 259    4:40   56.6    38    1.0    43      3.9    880.9     0.00       0    999.0
 259    4:50   54.4    39    3.1   135      8.8    881.0     0.00       0    999.0
 259    5:00   54.5    39    2.5    16      3.7    881.1     0.00       0    999.0
 259    5:10   53.2    40    0.5   274      2.8    881.2     0.00       0    999.0
 259    5:20   52.9    40    1.4   112      3.8    881.3     0.00       0    999.0
 259    5:30   52.4    39    1.5   346      3.5    881.3     0.00       1    999.0
 259    5:40   52.2    39    1.6    75      3.5    881.3     0.00       2    999.0
 259    5:50   52.5    39    1.7   305      4.7    881.4     0.00       6    999.0
 259    6:00   51.6    38    1.4    42      2.6    881.4     0.00      13    999.0
 259    6:10   52.8    40    1.6    73      3.5    881.4     0.00      30    999.0
 259    6:20   54.5    40    1.9   111      4.6    881.4     0.00      58    999.0
 259    6:30   55.1    38    1.6   240      3.7    881.5     0.00      91    999.0
 259    6:40   55.3    35    0.5   310      1.5    881.6     0.00     118    999.0
 259    6:50   56.8    34    0.9    14      3.0    881.6     0.00     149    999.0
 259    7:00   58.0    35    1.6    38      3.3    881.6     0.00     179    999.0
 259    7:10   60.9    34    0.9    96      1.8    881.5     0.00     217    999.0
 259    7:20   64.2    32    1.1   158      2.3    881.4     0.00     254    999.0
 259    7:30   67.2    31    0.6    62      1.7    881.4     0.00     285    999.0
 259    7:40   67.8    29    1.4   235      3.7    881.4     0.00     322    999.0
 259    7:50   68.7    28    1.0   286      2.5    881.4     0.00     356    999.0
 259    8:00   68.7    28    1.6   252      2.8    881.4     0.00     395    999.0
 259    8:10   69.5    28    2.2   298      4.5    881.4     0.00     428    999.0
 259    8:20   70.1    27    2.9   321      5.0    881.4     0.00     461    999.0
 259    8:30   71.8    26    1.9   309      3.4    881.4     0.00     493    999.0
 259    8:40   73.8    25    1.0   298      2.5    881.3     0.00     524    999.0
 259    8:50   75.6    23    1.8   319      3.6    881.2     0.00     559    999.0
 259    9:00   77.3    22    2.1   319      4.1    881.1     0.00     588    999.0
 259    9:10   78.9    21    1.5   300      3.9    881.0     0.00     617    999.0
 259    9:20   81.7    19    0.9    23      2.9    880.9     0.00     644    999.0
 259    9:30   83.9    18    0.8    39      2.0    880.9     0.00     670    999.0
 259    9:40   84.8    17    1.1    96      2.6    880.8     0.00     694    999.0
 259    9:50   86.4    16    0.3    38      2.0    880.7     0.00     716    999.0
 259   10:00   87.0    15    1.8   305      5.6    880.6     0.00     733    999.0
 259   10:10   86.6    16    3.2    37      5.7    880.5     0.00     751    999.0
 259   10:20   87.9    15    2.3    16      6.2    880.4     0.00     773    999.0
 259   10:30   88.2    15    4.0   101     10.5    880.3     0.00     787    999.0
 259   10:40   88.4    14    2.8   326      6.1    880.2     0.00     800    999.0
 259   10:50   88.7    14    2.9    43      6.4    880.0     0.00     807    999.0
 259   11:00   89.5    14    3.1    81      7.7    879.8     0.00     826    999.0
 259   11:10   90.5    14    3.5   106      7.4    879.6     0.00     837    999.0
 259   11:20   91.6    13    3.8   135     10.0    879.4     0.00     840    999.0
 259   11:30   91.7    13    7.7   117     14.4    879.2     0.00     857    999.0
 259   11:40   92.9    11    4.8   149     15.9    879.1     0.00     859    999.0
 259   11:50   93.9    11    8.3   176     16.2    878.9     0.00     865    999.0
 259   12:00   93.9    11    8.7   196     16.2    878.8     0.00     864    999.0
 259   12:10   93.9    11    6.3   146     11.0    878.7     0.00     868    999.0
 259   12:20   94.4    11    6.0   166     12.4    878.5     0.00     898    999.0
 259   12:30   94.8    10    8.4   194     17.2    878.4     0.00     926    999.0
 259   12:40   93.5    10    9.2   238     15.8    878.3     0.00     509    999.0
 259   12:50   93.2    11    5.3   200     13.1    878.3     0.00     627    999.0
 259   13:00   93.7    11    8.2   295     14.4    878.1     0.00     939    999.0
 259   13:10   93.1    11    9.8   318     15.5    878.0     0.00     664    999.0
 259   13:20   93.6    11    7.1     2     11.8    877.9     0.00     888    999.0
 259   13:30   94.1    11    8.4   305     14.6    877.8     0.00     474    999.0
 259   13:40   94.3    11    6.1   301     10.9    877.6     0.00     708    999.0
 259   13:50   94.8    10    3.4   322     10.4    877.5     0.00     779    999.0
 259   14:00   95.6    10    3.6   314      9.1    877.3     0.00     655    999.0
 259   14:10   94.2    10    8.0   287     17.1    877.2     0.00     572    999.0
 259   14:20   94.6    10    8.3   303     15.3    877.1     0.00     685    999.0
 259   14:30   94.5    10    6.4   338     11.8    877.0     0.00     585    999.0
 259   14:40   95.4     9    7.1   292     11.1    876.8     0.00     641    999.0
 259   14:50   95.6     9    7.2   256     17.2    876.7     0.00     621    999.0
 259   15:00   95.5     9   10.5   288     18.0    876.5     0.00     591    999.0
 259   15:10   95.7     9    9.3   296     14.2    876.5     0.00     566    999.0
 259   15:20   95.5     9    8.6   283     16.6    876.5     0.00     541    999.0
 259   15:30   95.5     8    9.6   317     15.1    876.4     0.00     510    999.0
 259   15:40   95.3     8    7.9   259     13.7    876.3     0.00     476    999.0
 259   15:50   95.6     8    6.4   257     12.3    876.3     0.00     441    999.0
 259   16:00   95.4     8    6.0   316     10.8    876.2     0.00     411    999.0
 259   16:10   95.4     8    4.7   290     11.3    876.1     0.00     389    999.0
 259   16:20   95.5     8    6.0   232      9.9    876.1     0.00     355    999.0
 259   16:30   95.7     8    5.8   236      9.6    876.0     0.00     311    999.0
 259   16:40   94.9     8    6.4   270      9.9    876.0     0.00     277    999.0
 259   16:50   95.1     8    6.7   282     11.9    876.0     0.00     249    999.0
 259   17:00   94.4     8    9.2   278     13.9    876.0     0.00     201    999.0
 259   17:10   93.4     8    8.5   288     15.9    876.0     0.00      95    999.0
 259   17:20   93.0     8    8.4   292     13.0    876.1     0.00      83    999.0
 259   17:30   91.8     8    6.6   296      8.8    876.1     0.00      30    999.0
 259   17:40   90.8     8    6.2   286      8.5    876.2     0.00      45    999.0
 259   17:50   90.4     9    7.2   277     10.7    876.2     0.00      32    999.0
 259   18:00   89.3     9    8.9   282     12.7    876.3     0.00      16    999.0
 259   18:10   88.0    10    6.9   296     10.6    876.4     0.00       4    999.0
 259   18:20   86.8    10    6.9   297     11.7    876.5     0.00       1    999.0
 259   18:30   86.1    10    6.0   300     10.4    876.6     0.00       0    999.0
 259   18:40   85.5    10    7.1   287     10.7    876.6     0.00       0    999.0
 259   18:50   84.8    10    4.9   291      7.4    876.8     0.00       0    999.0
 259   19:00   83.0    11    3.4   360      4.3    876.9     0.00       0    999.0
 259   19:10   82.9    11    5.9   340     10.0    877.0     0.00       0    999.0
 259   19:20   84.5    10    8.2   328     15.1    877.1     0.00       0    999.0
 259   19:30   84.4    11    9.2   344     13.9    877.1     0.00       0    999.0
 259   19:40   83.8    11    9.7   353     15.2    877.3     0.00       0    999.0
 259   19:50   84.0    12   11.2   348     16.6    877.4     0.00       0    999.0
 259   20:00   83.5    12   11.5   342     15.1    877.5     0.00       0    999.0
 259   20:10   83.0    12   11.7   340     15.4    877.6     0.00       0    999.0
 259   20:20   82.5    12   10.3   330     15.3    877.7     0.00       0    999.0
 259   20:30   81.3    13    7.4   328     11.5    877.7     0.00       0    999.0
 259   20:40   80.6    13    7.7   322     14.0    877.7     0.00       0    999.0
 259   20:50   81.4    13   10.0   342     14.6    877.8     0.00       0    999.0
 259   21:00   81.2    13    9.2   326     12.8    877.8     0.00       0    999.0
 259   21:10   81.4    13   10.0   352     15.2    877.8     0.00       0    999.0
 259   21:20   81.1    13    9.9   335     14.9    877.8     0.00       0    999.0
 259   21:30   80.9    13   10.4   336     16.1    877.8     0.00       0    999.0
 259   21:40   80.8    13    8.9   337     15.0    877.9     0.00       0    999.0
 259   21:50   80.0    14    6.3   338     11.2    877.9     0.00       0    999.0
 259   22:00   79.3    14    6.7     5     10.0    878.0     0.00       0    999.0
 259   22:10   78.0    14    7.9    14     12.6    878.0     0.00       0    999.0
 259   22:20   78.2    14    9.3    25     14.5    878.0     0.00       0    999.0
 259   22:30   77.7    14    8.6    26     13.6    878.1     0.00       0    999.0
 259   22:40   77.4    14    8.3    19     12.2    878.2     0.00       0    999.0
 259   22:50   77.6    14    7.1     8     11.7    878.2     0.00       0    999.0
 259   23:00   76.2    15    1.6   269      3.9    878.3     0.00       0    999.0
 259   23:10   76.0    15    7.1   214     12.2    878.3     0.00       0    999.0
 259   23:20   74.4    16    5.9   207      9.4    878.5     0.00       0    999.0

Return to Blowing Sand Mountains graphs page.


Western Regional Climate Center,wrcc@dri.edu